Quick Links (Output Below):   Max & Min Temps   /   Climate Reports   /   Zone Forecasts
River Forecasts   /   Forestry Forecasts   /   Aviation Forecasts   /   Radars   /   Features

Terminal Aerodrome Forecast (Hot Springs)

Pick a Site:
Arkadelphia | El Dorado | Fayetteville | Fort Smith | Harrison | Highfill | Hot Springs | Jonesboro
Little Rock | Monticello | Mountain Home | Pine Bluff | Texarkana
 Forecast 

KHOT 242353Z 2500/2524 30009KT P6SM BKN035 OVC080
     FM250200 29010KT P6SM BKN040 BKN100
     FM250600 28010KT P6SM SCT040 BKN100
     FM250900 29006KT P6SM SKC
      TEMPO 2509/2512 5SM BR
     FM251300 27006KT P6SM SCT250=


 Latest METARs (Observations) 
How to Decode METARs
03Z KHOT 250253Z AUTO 26007KT 10SM CLR 16/14 A2985 RMK AO2 SLP104
         T01610139 53032
         
02Z KHOT 250153Z AUTO 27003KT 8SM CLR 16/14 A2982 RMK AO2 SLP092
         T01560144
         
01Z KHOT 250053Z AUTO 00000KT 10SM FEW070 17/15 A2979 RMK AO2 SLP083
         T01670150
         
00Z KHOT 242353Z AUTO 30005KT 10SM FEW065 BKN080 OVC100 17/15 A2976
         RMK AO2 LTG DSNT E AND SE TSE33RAE35 SLP072 P0033 60043
         T01670150 10233 20156 53006
         
***** Today's Observations (Above) *****


23Z KHOT 242253Z AUTO 30013G28KT 4SM -TSRA SCT020 BKN047 OVC100 21/17
         A2976 RMK AO2 PK WND 30028/2251 LTG DSNT ALQDS TSB37RAB51
         PRESRR SLP074 P0004 T02060172
         
22Z KHOT 242153Z AUTO 22004KT 10SM SCT017 BKN022 23/19 A2973 RMK AO2
         LTG DSNT NW SLP061 T02280189
         
21Z KHOT 242053Z AUTO 21006KT 6SM BR SCT012 BKN019 OVC026 20/19 A2974
         RMK AO2 RAE22 SLP066 P0002 60006 T02000189 58020
         
20Z KHOT 241953Z AUTO 21005KT 5SM -RA BR FEW012 BKN027 OVC034 21/18
         A2977 RMK AO2 LTG DSNT NE-S TSB24E47RAB14 SLP076 P0002
         T02060183
         
19Z KHOT 241853Z AUTO 19004KT 10SM FEW050 OVC060 22/18 A2978 RMK AO2
         LTG DSNT SE AND S TSE16RAE35 SLP080 P0002 T02170183
         
18Z KHOT 241753Z AUTO 18006KT 5SM TSRA FEW034 SCT055 BKN070 22/17
         A2980 RMK AO2 LTG DSNT S-NW TSE23B42RAE11B50 SLP086 P0004
         60004 T02220167 10239 20178 55019
         
***** Yesterday's Observations (Above) *****


Back to Main Page
http://www.srh.noaa.gov/lzk/qfcst.php

USA.gov is the U.S. government's official web portal to all federal, state and local government web resources and services.